Nedlloyd Mercator — PCIM — position and weather

sailwx.info

Track history (hours):
 
Tides and Currents Weather Stations Pressure Air Temp Water Temp Dewpoint Dewpoint Depression Visibility Wind Speed Wind Dir Waves Ship Positions

Nedlloyd Mercator

Last reported at 2014-Jul-25 01:34 UTC. Time now 2014-Jul-25 03:49 UTC.
Position N 44°27' E 037°40'.

Length 278 m; beam 43 m.

Type: Ship (hazmat cat A). MMSI: 246433000.

Date/timePositionNaut miles runAvg speedWind from/ knotsBaromVisibWave heightAir tempDewpointWater temp
2014-Jul-25 01:34N 44°27' E 037°40'7310.4
2014-Jul-24 18:33N 43°54' E 036°10'1110.8
2014-Jul-24 17:29N 43°49' E 035°55'1311.1
2014-Jul-24 16:19N 43°43' E 035°39'811.0
2014-Jul-24 15:34N 43°39' E 035°29'1111.1
2014-Jul-24 14:34N 43°34' E 035°16'1111.1
2014-Jul-24 13:34N 43°29' E 035°02'1111.2
2014-Jul-24 12:34N 43°24' E 034°48'1118.8
2014-Jul-24 12:00N 43°18' E 034°36'1 3.1 090 / 51004.9 5.4 0.534.022.526.4
2014-Jul-24 11:33N 43°19' E 034°34'1111.1
2014-Jul-24 10:33N 43°14' E 034°21'27411.0
2014-Jul-23 09:33N 40°58' E 028°60'10 9.8
2014-Jul-23 08:33N 40°49' E 028°59'0 0.0
2014-Jul-23 07:33N 40°49' E 028°59'0 0.2
2014-Jul-23 06:33N 40°49' E 028°60'0 0.3
2014-Jul-23 05:30N 40°49' E 028°60'0 0.3
2014-Jul-23 04:32N 40°48' E 029°00'4 3.7
2014-Jul-23 03:33N 40°48' E 029°05'1312.7
2014-Jul-23 02:33N 40°45' E 029°21'4 0.4
2014-Jul-22 15:30N 40°44' E 029°27'6 6.8
2014-Jul-22 14:33N 40°43' E 029°19'162 5.4
2014-Jul-21 08:33N 39°55' E 025°57'6513.1
2014-Jul-21 03:33N 38°51' E 025°44'2013.3
2014-Jul-21 02:05N 38°31' E 025°43'813.0
2014-Jul-21 01:27N 38°23' E 025°44'1313.3
2014-Jul-21 00:30N 38°10' E 025°44'3913.2
2014-Jul-20 21:33N 37°32' E 025°54'1312.8
2014-Jul-20 20:32N 37°20' E 025°58'1312.8
2014-Jul-20 19:33N 37°08' E 026°05'1212.5
2014-Jul-20 18:33N 36°57' E 026°12'1312.5
2014-Jul-20 17:31N 36°47' E 026°23'1312.6
2014-Jul-20 16:30N 36°38' E 026°33'1713.0
2014-Jul-20 15:10N 36°25' E 026°48'813.0
2014-Jul-20 14:33N 36°19' E 026°55'3212.3
2014-Jul-20 12:00N 35°54' E 027°18'16113.4 270 / 241004.9 5.4 2.026.020.723.5
2014-Jul-20 00:00N 35°42' E 030°36'16613.9 340 / 121001.3 5.4 1.028.524.226.4
2014-Jul-19 12:00N 36°00' E 034°00'50 1.7 250 / 151003.5 5.4 1.530.021.927.6
2014-Jul-18 06:00N 35°24' E 034°42'10010.6 260 / 81007.110.8 28.022.126.9
2014-Jul-17 20:33N 33°51' E 033°57'1110.7
2014-Jul-17 19:29N 33°40' E 033°52'2310.5
2014-Jul-17 17:18N 33°19' E 033°41'810.5
2014-Jul-17 16:31N 33°12' E 033°38'135 5.3
2014-Jul-16 15:11N 31°13' E 032°21'0 0.0
2014-Jul-16 14:33N 31°13' E 032°21'0 0.0
2014-Jul-16 13:33N 31°13' E 032°21'2 2.4
2014-Jul-16 12:33N 31°11' E 032°20'26810.9
2014-Jul-15 12:00N 27°06' E 034°24'   300 / 20998.6 5.4 2.030.021.127.3
Track history (hours):
 
Tides and Currents Weather Stations Pressure Air Temp Water Temp Dewpoint Dewpoint Depression Visibility Wind Speed Wind Dir Waves Ship Positions

Nedlloyd Mercator

Last reported at 2014-Jul-25 01:34 UTC. Time now 2014-Jul-25 03:49 UTC.
Position N 44°27' E 037°40'.

Length 278 m; beam 43 m.

Type: Ship (hazmat cat A). MMSI: 246433000.

Date/timePositionNaut miles runAvg speedWind from/ knotsBaromVisibWave heightAir tempDewpointWater temp
2014-Jul-25 01:34N 44°27' E 037°40'7310.4
2014-Jul-24 18:33N 43°54' E 036°10'1110.8
2014-Jul-24 17:29N 43°49' E 035°55'1311.1
2014-Jul-24 16:19N 43°43' E 035°39'811.0
2014-Jul-24 15:34N 43°39' E 035°29'1111.1
2014-Jul-24 14:34N 43°34' E 035°16'1111.1
2014-Jul-24 13:34N 43°29' E 035°02'1111.2
2014-Jul-24 12:34N 43°24' E 034°48'1118.8
2014-Jul-24 12:00N 43°18' E 034°36'1 3.1 090 / 51004.9 5.4 0.534.022.526.4
2014-Jul-24 11:33N 43°19' E 034°34'1111.1
2014-Jul-24 10:33N 43°14' E 034°21'27411.0
2014-Jul-23 09:33N 40°58' E 028°60'10 9.8
2014-Jul-23 08:33N 40°49' E 028°59'0 0.0
2014-Jul-23 07:33N 40°49' E 028°59'0 0.2
2014-Jul-23 06:33N 40°49' E 028°60'0 0.3
2014-Jul-23 05:30N 40°49' E 028°60'0 0.3
2014-Jul-23 04:32N 40°48' E 029°00'4 3.7
2014-Jul-23 03:33N 40°48' E 029°05'1312.7
2014-Jul-23 02:33N 40°45' E 029°21'4 0.4
2014-Jul-22 15:30N 40°44' E 029°27'6 6.8
2014-Jul-22 14:33N 40°43' E 029°19'162 5.4
2014-Jul-21 08:33N 39°55' E 025°57'6513.1
2014-Jul-21 03:33N 38°51' E 025°44'2013.3
2014-Jul-21 02:05N 38°31' E 025°43'813.0
2014-Jul-21 01:27N 38°23' E 025°44'1313.3
2014-Jul-21 00:30N 38°10' E 025°44'3913.2
2014-Jul-20 21:33N 37°32' E 025°54'1312.8
2014-Jul-20 20:32N 37°20' E 025°58'1312.8
2014-Jul-20 19:33N 37°08' E 026°05'1212.5
2014-Jul-20 18:33N 36°57' E 026°12'1312.5
2014-Jul-20 17:31N 36°47' E 026°23'1312.6
2014-Jul-20 16:30N 36°38' E 026°33'1713.0
2014-Jul-20 15:10N 36°25' E 026°48'813.0
2014-Jul-20 14:33N 36°19' E 026°55'3212.3
2014-Jul-20 12:00N 35°54' E 027°18'16113.4 270 / 241004.9 5.4 2.026.020.723.5
2014-Jul-20 00:00N 35°42' E 030°36'16613.9 340 / 121001.3 5.4 1.028.524.226.4
2014-Jul-19 12:00N 36°00' E 034°00'50 1.7 250 / 151003.5 5.4 1.530.021.927.6
2014-Jul-18 06:00N 35°24' E 034°42'10010.6 260 / 81007.110.8 28.022.126.9
2014-Jul-17 20:33N 33°51' E 033°57'1110.7
2014-Jul-17 19:29N 33°40' E 033°52'2310.5
2014-Jul-17 17:18N 33°19' E 033°41'810.5
2014-Jul-17 16:31N 33°12' E 033°38'135 5.3
2014-Jul-16 15:11N 31°13' E 032°21'0 0.0
2014-Jul-16 14:33N 31°13' E 032°21'0 0.0
2014-Jul-16 13:33N 31°13' E 032°21'2 2.4
2014-Jul-16 12:33N 31°11' E 032°20'26810.9
2014-Jul-15 12:00N 27°06' E 034°24'   300 / 20998.6 5.4 2.030.021.127.3

Dump ship's entire track history